GMTN  Saniat Rmel Airport

Add Bookmark

Morocco

Status IATA
Operational TTU
Latitude Longitude
35° 35' 39" N 5° 19' 12" W
35.594299 -5.320020
Local (DST + 1) UTC (GMT 0)
Nov 21, 2014 10:14 Nov 21, 2014 10:14
Sunrise-Sunset Local UTC
Begin Civil Twilight 06:34 06:34
Sunrise 07:01 07:01
Sunset 05:12 17:12
End Civil Twilight 05:40 17:40

Current Weather

METAR Observed MVFR
GMTN 210900Z 34004KT 5000 SCT010 BKN016 19/16 Q1012 NOSIG Fri, Nov 21, 2014 @ 09:00 UTC
(1 Hour, 14 Minutes ago)
Marginal Visual Flight Rules
Wind Visibility Clouds Conditions
340° at 4 knots (7 kph) 5000 meters
  • Scattered at 1,000' AGL
  • Broken at 1,600' AGL
  • No significant weather
Temperatures Readings Precipitation
Current Temp 19°C (66°F)
Dewpoint 16°C (61°F)
Humidity 83%
Altimeter 29.88"Hg
Sea Level Pressure 1012mb
Field Elevation 32.81'
None Recorded

Additional weather within a 92.6km radius of GMTN

Map ICAO Location
GMTT 55.9km W (285°)
LXGB 61.9km N (360°)

24 Hour Weather History

Loading
-

24 Hour Weather Graphs

Loading
-

CheckWX.com is intended as a tool to help pilots better visualize weather data. It is not intended as a substitute for an official weather briefing obtained from a Flight Service Station. CheckWX.com does not meet the FAA requirements for an official pre-flight weather briefing. Therefore, it's important that pilots still call and obtain an official FSS pre-flight weather briefing.